Terminal Aerodrome Forecast
Issued by NWS

Home | Current Version | Previous Version | Text Only | Print | Product List | Glossary On
Versions: 1 2 3 4 5 6 7 8 9 10 11 12 13 14 15
660
FTUS41 KPHI 071727
TAFPNE
TAF
KPNE 071727Z 0718/0818 02006KT P6SM BKN200
     FM080600 02010KT P6SM OVC100
     FM081200 03012KT P6SM OVC020
     FM081500 03012G20KT P6SM OVC025=

USA.gov is the U.S. government's official web portal to all federal, state and local government web resources and services.